createdAt,value
2019-02-26T00:00:47.257Z,77.60
2019-02-26T00:03:19.896Z,75.63
2019-02-26T00:05:51.793Z,77.40
2019-02-26T00:08:21.851Z,80.63
2019-02-26T00:10:54.753Z,76.63
2019-02-26T00:13:25.080Z,70.83
2019-02-26T00:15:55.868Z,78.53
2019-02-26T00:18:25.485Z,79.60
2019-02-26T00:20:56.670Z,77.70
2019-02-26T00:23:29.678Z,82.17
2019-02-26T00:25:59.305Z,79.77
2019-02-26T00:28:28.965Z,79.57
2019-02-26T00:30:59.518Z,77.10
2019-02-26T00:33:30.210Z,75.27
2019-02-26T00:35:59.813Z,74.23
2019-02-26T00:38:29.448Z,88.50
2019-02-26T00:41:01.540Z,82.63
2019-02-26T00:43:32.299Z,85.87
2019-02-26T00:46:03.150Z,77.80
2019-02-26T00:48:34.168Z,77.23
2019-02-26T00:51:05.141Z,78.20
2019-02-26T00:53:34.770Z,80.27
2019-02-26T00:56:05.724Z,77.80
2019-02-26T00:58:38.963Z,88.77
2019-02-26T01:01:10.225Z,79.33
2019-02-26T01:03:40.673Z,85.40
2019-02-26T01:06:10.377Z,80.67
2019-02-26T01:08:42.524Z,81.27
2019-02-26T01:11:11.951Z,88.40
2019-02-26T01:13:41.572Z,87.40
2019-02-26T01:16:11.479Z,89.03
2019-02-26T01:18:42.174Z,81.37
2019-02-26T01:21:12.731Z,87.03
2019-02-26T01:23:42.967Z,92.07
2019-02-26T01:26:12.812Z,81.70
2019-02-26T01:28:46.152Z,87.03
2019-02-26T01:31:13.840Z,84.20
2019-02-26T01:33:43.456Z,87.07
2019-02-26T01:36:13.988Z,82.17
2019-02-26T01:38:46.306Z,88.37
2019-02-26T01:41:17.846Z,88.03
2019-02-26T01:43:47.513Z,83.57
2019-02-26T01:46:18.792Z,79.80
2019-02-26T01:48:48.557Z,89.97
2019-02-26T01:51:20.027Z,81.93
2019-02-26T01:53:51.909Z,82.77
2019-02-26T01:56:22.206Z,85.63
2019-02-26T01:58:56.623Z,83.70
2019-02-26T02:01:23.858Z,91.40
2019-02-26T02:03:56.118Z,87.13
2019-02-26T02:06:25.780Z,90.43
2019-02-26T02:08:55.783Z,98.73
2019-02-26T02:11:30.626Z,89.03
2019-02-26T02:14:01.871Z,86.00
2019-02-26T02:16:31.400Z,91.07
2019-02-26T02:19:01.310Z,89.57
2019-02-26T02:21:33.809Z,91.93
2019-02-26T02:24:05.746Z,83.77
2019-02-26T02:26:35.306Z,90.83
2019-02-26T02:29:05.152Z,91.30
2019-02-26T02:31:37.610Z,84.33
2019-02-26T02:34:06.108Z,77.30
2019-02-26T02:36:35.723Z,80.80
2019-02-26T02:39:10.399Z,78.73
2019-02-26T02:41:39.364Z,83.40
2019-02-26T02:44:12.335Z,88.03
2019-02-26T02:46:42.528Z,85.43
2019-02-26T02:49:13.278Z,83.53
2019-02-26T02:51:43.328Z,88.57
2019-02-26T02:54:15.447Z,90.93
2019-02-26T02:56:44.533Z,84.10
2019-02-26T02:59:16.455Z,81.07
2019-02-26T03:01:48.374Z,86.73
2019-02-26T03:04:19.602Z,99.20
2019-02-26T03:06:50.174Z,87.40
2019-02-26T03:09:19.856Z,90.37
2019-02-26T03:11:51.912Z,96.57
2019-02-26T03:14:20.810Z,100.17
2019-02-26T03:16:51.430Z,112.57
2019-02-26T03:19:21.781Z,114.27
2019-02-26T03:21:52.645Z,119.10
2019-02-26T03:24:25.363Z,126.20
2019-02-26T03:26:54.086Z,135.60
2019-02-26T03:29:24.036Z,131.77
2019-02-26T03:31:55.484Z,130.77
2019-02-26T03:34:25.777Z,128.00
2019-02-26T03:36:59.653Z,126.00
2019-02-26T03:39:28.692Z,126.50
2019-02-26T03:41:58.665Z,134.30
2019-02-26T03:44:30.359Z,130.43
2019-02-26T03:47:00.110Z,135.17
2019-02-26T03:49:30.200Z,131.90
2019-02-26T03:52:00.300Z,133.63
2019-02-26T03:54:30.202Z,132.00
2019-02-26T03:56:59.836Z,128.13
2019-02-26T03:59:29.908Z,134.57
2019-02-26T04:01:59.807Z,126.20
2019-02-26T04:04:31.126Z,128.23
2019-02-26T04:07:01.305Z,123.00
2019-02-26T04:09:32.638Z,123.67
2019-02-26T04:12:02.624Z,121.20
2019-02-26T04:14:32.237Z,127.23
2019-02-26T04:17:04.124Z,124.13
2019-02-26T04:19:33.455Z,127.57
2019-02-26T04:22:26.422Z,122.33
2019-02-26T04:25:01.512Z,109.70
2019-02-26T04:27:56.985Z,110.90
2019-02-26T04:31:07.093Z,118.43
2019-02-26T04:34:19.658Z,111.07
2019-02-26T04:37:12.954Z,111.20
2019-02-26T04:40:20.079Z,108.43
2019-02-26T04:43:31.310Z,111.30
2019-02-26T04:46:42.330Z,112.80
2019-02-26T04:49:11.935Z,107.97
2019-02-26T04:51:44.505Z,107.70
2019-02-26T04:54:17.551Z,107.23
2019-02-26T04:56:45.126Z,109.53
2019-02-26T04:59:17.018Z,113.80
2019-02-26T05:01:49.240Z,107.73
2019-02-26T05:04:18.834Z,119.57
2019-02-26T05:06:48.786Z,116.33
2019-02-26T05:09:18.740Z,109.17
2019-02-26T05:11:48.644Z,106.13
2019-02-26T05:14:23.022Z,115.87
2019-02-26T05:16:49.814Z,113.10
2019-02-26T05:19:21.762Z,111.27
2019-02-26T05:21:50.799Z,114.10
2019-02-26T05:24:21.815Z,115.17
2019-02-26T05:26:51.956Z,115.20
2019-02-26T05:29:21.577Z,121.93
2019-02-26T05:32:10.780Z,123.37
2019-02-26T05:34:42.694Z,123.83
2019-02-26T05:37:13.936Z,130.57
2019-02-26T05:39:45.872Z,128.77
2019-02-26T05:42:14.801Z,146.20
2019-02-26T05:44:44.436Z,135.13
2019-02-26T05:47:16.692Z,143.33
2019-02-26T05:49:45.955Z,124.13
2019-02-26T05:52:15.744Z,120.27
2019-02-26T05:54:46.490Z,122.93
2019-02-26T05:57:26.244Z,112.63
2019-02-26T05:59:48.791Z,122.63
2019-02-26T06:02:19.638Z,116.57
2019-02-26T06:04:50.022Z,110.77
2019-02-26T06:07:24.133Z,112.40
2019-02-26T06:09:53.597Z,109.27
2019-02-26T06:12:23.510Z,115.43
2019-02-26T06:14:54.147Z,115.27
2019-02-26T06:17:24.773Z,117.80
2019-02-26T06:19:57.113Z,118.03
2019-02-26T06:22:29.218Z,114.77
2019-02-26T06:25:00.310Z,108.73
2019-02-26T06:27:31.021Z,122.43
2019-02-26T06:30:03.183Z,112.20
2019-02-26T06:32:35.208Z,128.63
2019-02-26T06:35:08.518Z,118.97
2019-02-26T06:37:40.279Z,108.57
2019-02-26T06:40:10.603Z,110.40
2019-02-26T06:42:40.435Z,113.93
2019-02-26T06:45:13.909Z,112.37
2019-02-26T06:47:45.614Z,106.23
2019-02-26T06:50:18.538Z,111.63
2019-02-26T06:52:48.627Z,108.47
2019-02-26T06:55:18.901Z,124.67
2019-02-26T06:57:50.880Z,117.97
2019-02-26T07:00:22.288Z,113.47
2019-02-26T07:02:51.467Z,122.37
2019-02-26T07:05:23.895Z,126.10
2019-02-26T07:07:55.067Z,123.27
2019-02-26T07:10:26.308Z,125.10
2019-02-26T07:12:55.664Z,117.07
2019-02-26T07:15:28.776Z,132.57
2019-02-26T07:18:00.108Z,119.93
2019-02-26T07:20:34.111Z,127.73
2019-02-26T07:23:00.685Z,115.47
2019-02-26T07:25:31.794Z,127.43
2019-02-26T07:28:02.955Z,125.40
2019-02-26T07:30:34.695Z,124.30
2019-02-26T07:33:05.340Z,130.70
2019-02-26T07:35:37.333Z,139.13
2019-02-26T07:38:06.996Z,136.27
2019-02-26T07:40:38.636Z,142.10
2019-02-26T07:43:09.849Z,132.50
2019-02-26T07:45:39.485Z,136.07
2019-02-26T07:48:09.203Z,136.90
2019-02-26T07:50:41.556Z,134.30
2019-02-26T07:53:12.233Z,123.87
2019-02-26T07:55:42.421Z,124.17
2019-02-26T07:58:13.741Z,120.97
2019-02-26T08:00:49.177Z,123.97
2019-02-26T08:03:17.392Z,108.43
2019-02-26T08:05:47.172Z,108.17
2019-02-26T08:08:18.728Z,103.47
2019-02-26T08:10:48.943Z,101.77
2019-02-26T08:13:19.485Z,106.47
2019-02-26T08:15:49.116Z,97.37
2019-02-26T08:18:18.728Z,104.90
2019-02-26T08:20:48.351Z,99.60
2019-02-26T08:23:19.891Z,95.43
2019-02-26T08:25:50.044Z,85.67
2019-02-26T08:28:23.016Z,89.17
2019-02-26T08:30:54.690Z,92.33
2019-02-26T08:33:24.061Z,85.03
2019-02-26T08:35:56.150Z,88.77
2019-02-26T08:38:29.432Z,83.67
2019-02-26T08:40:56.592Z,80.00
2019-02-26T08:43:26.339Z,81.33
2019-02-26T08:45:56.275Z,78.93
2019-02-26T08:48:27.040Z,81.43
2019-02-26T08:51:00.922Z,78.23
2019-02-26T08:53:29.623Z,81.70
2019-02-26T08:56:01.951Z,83.27
2019-02-26T08:58:31.485Z,81.20
2019-02-26T09:01:01.109Z,74.67
2019-02-26T09:03:40.175Z,79.43
2019-02-26T09:06:10.865Z,73.87
2019-02-26T09:08:35.590Z,73.27
2019-02-26T09:11:06.272Z,74.80
2019-02-26T09:13:38.690Z,72.93
2019-02-26T09:16:08.040Z,74.63
2019-02-26T09:18:40.182Z,71.90
2019-02-26T09:21:10.250Z,70.17
2019-02-26T09:23:40.778Z,71.53
2019-02-26T09:26:10.390Z,70.97
2019-02-26T09:28:40.002Z,69.87
2019-02-26T09:31:11.689Z,68.70
2019-02-26T09:33:43.569Z,69.37
2019-02-26T09:36:15.193Z,68.40
2019-02-26T09:38:44.977Z,64.23
2019-02-26T09:41:16.624Z,65.87
2019-02-26T09:43:48.111Z,62.20
2019-02-26T09:46:19.080Z,66.80
2019-02-26T09:48:49.170Z,64.30
2019-02-26T09:51:19.153Z,63.43
2019-02-26T09:53:50.097Z,63.37
2019-02-26T09:56:20.094Z,65.00
2019-02-26T09:58:50.861Z,63.87
2019-02-26T10:01:20.666Z,56.33
2019-02-26T10:03:50.293Z,62.80
2019-02-26T10:06:21.615Z,56.87
2019-02-26T10:08:53.174Z,60.93
2019-02-26T10:11:23.176Z,58.13
2019-02-26T10:13:53.961Z,60.07
2019-02-26T10:16:25.629Z,56.70
2019-02-26T10:18:56.808Z,56.47
2019-02-26T10:21:26.755Z,58.00
2019-02-26T10:23:57.666Z,57.73
2019-02-26T10:26:30.555Z,54.90
2019-02-26T10:29:04.407Z,53.00
2019-02-26T10:31:32.329Z,54.77
2019-02-26T10:34:03.033Z,54.67
2019-02-26T10:36:35.981Z,53.13
2019-02-26T10:39:07.486Z,51.70
2019-02-26T10:41:39.850Z,52.27
2019-02-26T10:44:10.326Z,49.33
2019-02-26T10:46:41.956Z,49.57
2019-02-26T10:49:12.450Z,47.97
2019-02-26T10:51:43.043Z,51.77
2019-02-26T10:54:17.631Z,54.07
2019-02-26T10:56:44.894Z,55.70
2019-02-26T10:59:15.795Z,51.20
2019-02-26T11:01:49.328Z,49.97
2019-02-26T11:04:18.220Z,48.60
2019-02-26T11:06:47.859Z,47.57
2019-02-26T11:09:21.840Z,47.13
2019-02-26T11:11:49.149Z,53.60
2019-02-26T11:14:19.480Z,47.77
2019-02-26T11:16:49.322Z,46.30
2019-02-26T11:19:19.326Z,44.83
2019-02-26T11:21:50.705Z,46.90
2019-02-26T11:24:20.273Z,41.43
2019-02-26T11:26:50.138Z,46.43
2019-02-26T11:29:19.778Z,44.53
2019-02-26T11:31:49.727Z,48.20
2019-02-26T11:34:19.511Z,48.90
2019-02-26T11:36:49.131Z,44.97
2019-02-26T11:39:18.780Z,49.67
2019-02-26T11:41:50.734Z,52.13
2019-02-26T11:44:22.654Z,56.60
2019-02-26T11:46:53.738Z,58.73
2019-02-26T11:49:23.013Z,54.93
2019-02-26T11:51:52.795Z,58.97
2019-02-26T11:54:23.248Z,50.40
2019-02-26T11:56:52.862Z,52.60
2019-02-26T11:59:22.719Z,54.37
2019-02-26T12:01:54.034Z,55.40
2019-02-26T12:04:23.728Z,51.30
2019-02-26T12:06:53.401Z,56.23
2019-02-26T12:09:23.020Z,52.77
2019-02-26T12:11:52.639Z,54.30
2019-02-26T12:14:22.408Z,53.77
2019-02-26T12:16:52.064Z,55.93
2019-02-26T12:19:23.124Z,56.83
2019-02-26T12:21:55.139Z,58.77
2019-02-26T12:24:26.433Z,52.10
2019-02-26T12:26:55.750Z,52.60
2019-02-26T12:29:25.931Z,53.67
2019-02-26T12:31:58.233Z,57.20
2019-02-26T12:34:28.444Z,53.63
2019-02-26T12:37:02.090Z,54.73
2019-02-26T12:39:31.394Z,55.00
2019-02-26T12:42:01.107Z,49.93
2019-02-26T12:44:31.891Z,52.30
2019-02-26T12:47:02.126Z,52.60
2019-02-26T12:49:35.019Z,55.13
2019-02-26T12:52:03.509Z,51.93
2019-02-26T12:54:36.451Z,56.90
2019-02-26T12:57:05.105Z,54.87
2019-02-26T12:59:34.748Z,55.97
2019-02-26T13:02:05.661Z,54.00
2019-02-26T13:04:37.719Z,56.80
2019-02-26T13:07:09.317Z,55.40
2019-02-26T13:09:46.901Z,58.80
2019-02-26T13:12:12.634Z,61.97
2019-02-26T13:14:42.716Z,56.30
2019-02-26T13:17:13.833Z,55.50
2019-02-26T13:19:43.655Z,53.43
2019-02-26T13:22:17.373Z,55.27
2019-02-26T13:24:44.942Z,50.43
2019-02-26T13:27:14.564Z,49.13
2019-02-26T13:29:53.790Z,48.90
2019-02-26T13:32:17.627Z,48.07
2019-02-26T13:34:47.132Z,44.33
2019-02-26T13:37:16.914Z,45.07
2019-02-26T13:39:46.636Z,44.10
2019-02-26T13:42:19.271Z,44.13
2019-02-26T13:44:48.551Z,40.70
2019-02-26T13:47:18.471Z,38.73
2019-02-26T13:49:48.478Z,47.13
2019-02-26T13:52:18.106Z,48.73
2019-02-26T13:54:47.712Z,46.90
2019-02-26T13:57:17.340Z,42.70
2019-02-26T13:59:46.953Z,47.60
2019-02-26T14:02:17.099Z,43.33
2019-02-26T14:04:46.782Z,46.40
2019-02-26T14:07:17.473Z,40.27
2019-02-26T14:09:47.359Z,41.27
2019-02-26T14:12:17.651Z,39.83
2019-02-26T14:14:47.645Z,40.67
2019-02-26T14:17:17.274Z,41.60
2019-02-26T14:19:47.753Z,39.70
2019-02-26T14:22:18.006Z,45.43
2019-02-26T14:24:47.692Z,41.37
2019-02-26T14:27:17.409Z,43.03
2019-02-26T14:29:47.041Z,42.27
2019-02-26T14:32:16.752Z,38.87
2019-02-26T14:34:46.548Z,37.60
2019-02-26T14:37:16.242Z,40.87
2019-02-26T14:39:46.148Z,38.17
2019-02-26T14:42:15.796Z,41.47
2019-02-26T14:44:45.423Z,37.10
2019-02-26T14:47:15.397Z,43.40
2019-02-26T14:49:45.020Z,40.90
2019-02-26T14:52:14.904Z,39.80
2019-02-26T14:54:44.600Z,42.37
2019-02-26T14:57:14.406Z,42.70
2019-02-26T14:59:44.262Z,43.33
2019-02-26T15:02:14.869Z,45.87
2019-02-26T15:04:44.840Z,40.63
2019-02-26T15:07:14.726Z,39.27
2019-02-26T15:09:44.650Z,37.87
2019-02-26T15:12:14.344Z,40.57
2019-02-26T15:14:44.486Z,41.40
2019-02-26T15:17:14.338Z,38.00
2019-02-26T15:19:49.639Z,42.67
2019-02-26T15:22:15.479Z,42.23
2019-02-26T15:24:45.691Z,44.03
2019-02-26T15:27:15.321Z,40.73
2019-02-26T15:29:45.164Z,40.23
2019-02-26T15:32:15.164Z,41.47
2019-02-26T15:34:45.042Z,41.40
2019-02-26T15:37:14.673Z,43.23
2019-02-26T15:39:44.374Z,43.57
2019-02-26T15:42:14.800Z,47.37
2019-02-26T15:44:44.416Z,50.20
2019-02-26T15:47:14.445Z,49.93
2019-02-26T15:49:44.085Z,49.77
2019-02-26T15:52:13.719Z,51.50
2019-02-26T15:54:43.346Z,53.83
2019-02-26T15:57:12.980Z,52.43
2019-02-26T15:59:42.621Z,51.93
2019-02-26T16:02:12.332Z,49.83
2019-02-26T16:04:42.189Z,51.27
2019-02-26T16:07:12.628Z,49.20
2019-02-26T16:09:42.244Z,51.67
2019-02-26T16:12:12.480Z,50.90
2019-02-26T16:14:42.392Z,55.83
2019-02-26T16:17:12.265Z,55.77
2019-02-26T16:19:43.647Z,52.73
2019-02-26T16:22:13.372Z,55.30
2019-02-26T16:24:43.536Z,55.63
2019-02-26T16:27:13.400Z,52.63
2019-02-26T16:29:43.033Z,59.13
2019-02-26T16:32:12.732Z,54.67
2019-02-26T16:34:42.367Z,39.07
2019-02-26T16:37:12.161Z,49.23
2019-02-26T16:39:42.380Z,49.67
2019-02-26T16:42:12.355Z,51.10
2019-02-26T16:44:42.752Z,51.77
2019-02-26T16:47:12.608Z,51.57
2019-02-26T16:49:44.042Z,52.37
2019-02-26T16:52:13.970Z,53.60
2019-02-26T16:54:43.633Z,50.00
2019-02-26T16:57:13.247Z,49.27
2019-02-26T16:59:43.426Z,53.83
2019-02-26T17:02:13.332Z,50.47
2019-02-26T17:04:42.964Z,50.60
2019-02-26T17:07:12.970Z,53.50
2019-02-26T17:09:42.588Z,54.50
2019-02-26T17:12:12.200Z,54.37
2019-02-26T17:14:42.218Z,51.30
2019-02-26T17:17:12.152Z,58.33
2019-02-26T17:19:41.809Z,50.33
2019-02-26T17:22:11.739Z,53.37
2019-02-26T17:24:41.412Z,51.30
2019-02-26T17:27:11.411Z,52.10
2019-02-26T17:29:42.124Z,54.13
2019-02-26T17:32:12.035Z,55.60
2019-02-26T17:34:41.661Z,57.50
2019-02-26T17:37:11.626Z,55.93
2019-02-26T17:39:41.333Z,56.10
2019-02-26T17:42:11.301Z,54.07
2019-02-26T17:44:41.285Z,53.33
2019-02-26T17:47:10.916Z,53.73
2019-02-26T17:49:40.550Z,53.77
2019-02-26T17:52:10.279Z,58.93
2019-02-26T17:54:39.938Z,56.93
2019-02-26T17:57:09.784Z,56.63
2019-02-26T17:59:39.410Z,60.40
2019-02-26T18:02:09.120Z,56.70
2019-02-26T18:04:38.767Z,55.97
2019-02-26T18:07:08.725Z,59.40
2019-02-26T18:09:38.344Z,60.63
2019-02-26T18:12:07.965Z,59.70
2019-02-26T18:14:38.884Z,60.23
2019-02-26T18:17:09.124Z,63.40
2019-02-26T18:19:38.766Z,61.30
2019-02-26T18:22:08.684Z,63.77
2019-02-26T18:24:38.305Z,59.73
2019-02-26T18:27:08.272Z,67.07
2019-02-26T18:29:37.918Z,67.27
2019-02-26T18:32:10.821Z,68.93
2019-02-26T18:34:38.956Z,64.97
2019-02-26T18:37:08.587Z,67.73
2019-02-26T18:39:38.197Z,66.30
2019-02-26T18:42:08.439Z,63.37
2019-02-26T18:44:38.353Z,65.07
2019-02-26T18:47:07.971Z,67.30
2019-02-26T18:49:37.906Z,83.43
2019-02-26T18:52:08.703Z,79.37
2019-02-26T18:54:38.858Z,75.97
2019-02-26T18:57:11.710Z,79.07
2019-02-26T18:59:41.372Z,76.80
2019-02-26T19:02:11.382Z,70.33
2019-02-26T19:04:40.989Z,72.37
2019-02-26T19:07:10.613Z,72.13
2019-02-26T19:09:42.653Z,72.73
2019-02-26T19:12:11.596Z,70.67
2019-02-26T19:14:42.243Z,74.40
2019-02-26T19:17:12.710Z,71.67
2019-02-26T19:19:42.586Z,77.43
2019-02-26T19:22:12.650Z,77.57
2019-02-26T19:24:42.488Z,71.90
2019-02-26T19:27:12.150Z,80.40
2019-02-26T19:29:41.802Z,72.60
2019-02-26T19:32:15.474Z,76.67
2019-02-26T19:34:43.135Z,77.10
2019-02-26T19:37:13.162Z,70.70
2019-02-26T19:39:42.853Z,81.37
2019-02-26T19:42:12.487Z,75.90
2019-02-26T19:44:42.416Z,86.27
2019-02-26T19:47:14.230Z,80.47
2019-02-26T19:49:43.610Z,72.03
2019-02-26T19:52:13.220Z,70.10
2019-02-26T19:54:43.105Z,73.30
2019-02-26T19:57:13.152Z,74.13
2019-02-26T19:59:46.845Z,67.33
2019-02-26T20:02:14.080Z,70.13
2019-02-26T20:04:44.966Z,73.40
2019-02-26T20:07:14.603Z,74.23
2019-02-26T20:09:44.230Z,72.93
2019-02-26T20:12:13.846Z,74.57
2019-02-26T20:14:43.561Z,69.57
2019-02-26T20:17:14.785Z,73.00
2019-02-26T20:19:44.677Z,66.43
2019-02-26T20:22:14.305Z,68.53
2019-02-26T20:24:44.022Z,72.73
2019-02-26T20:27:13.953Z,64.13
2019-02-26T20:29:43.581Z,63.50
2019-02-26T20:32:13.192Z,64.73
2019-02-26T20:34:42.815Z,71.03
2019-02-26T20:37:12.581Z,71.20
2019-02-26T20:39:44.128Z,69.50
2019-02-26T20:42:13.965Z,65.60
2019-02-26T20:44:45.456Z,67.90
2019-02-26T20:47:15.354Z,67.50
2019-02-26T20:49:46.280Z,66.80
2019-02-26T20:52:16.301Z,65.33
2019-02-26T20:54:46.110Z,63.93
2019-02-26T20:57:15.795Z,59.90
2019-02-26T20:59:45.873Z,62.40
2019-02-26T21:02:16.138Z,64.40
2019-02-26T21:04:45.756Z,71.07
2019-02-26T21:07:15.382Z,64.10
2019-02-26T21:09:45.005Z,68.17
2019-02-26T21:12:15.383Z,67.93
2019-02-26T21:14:45.349Z,64.67
2019-02-26T21:17:14.952Z,63.63
2019-02-26T21:19:45.165Z,60.53
2019-02-26T21:22:15.089Z,64.07
2019-02-26T21:24:44.711Z,69.07
2019-02-26T21:27:14.399Z,70.30
2019-02-26T21:29:44.075Z,71.33
2019-02-26T21:32:13.988Z,74.33
2019-02-26T21:34:47.394Z,71.73
2019-02-26T21:37:15.566Z,72.57
2019-02-26T21:39:45.184Z,66.67
2019-02-26T21:42:15.529Z,62.80
2019-02-26T21:44:45.142Z,66.23
2019-02-26T21:47:14.748Z,71.53
2019-02-26T21:49:46.576Z,74.03
2019-02-26T21:52:15.696Z,69.57
2019-02-26T21:54:45.638Z,72.93
2019-02-26T21:57:15.600Z,72.93
2019-02-26T21:59:49.954Z,70.47
2019-02-26T22:02:18.640Z,73.53
2019-02-26T22:04:48.152Z,71.60
2019-02-26T22:07:19.642Z,71.73
2019-02-26T22:09:49.464Z,73.30
2019-02-26T22:12:19.078Z,76.83
2019-02-26T22:14:48.697Z,72.27
2019-02-26T22:17:18.316Z,73.40
2019-02-26T22:19:47.936Z,72.67
2019-02-26T22:22:17.576Z,79.37
2019-02-26T22:24:47.215Z,80.80
2019-02-26T22:27:16.865Z,77.17
2019-02-26T22:29:48.117Z,75.63
2019-02-26T22:32:17.841Z,76.50
2019-02-26T22:34:47.445Z,79.23
2019-02-26T22:37:17.071Z,75.33
2019-02-26T22:39:46.746Z,77.07
2019-02-26T22:42:16.365Z,81.00
2019-02-26T22:44:46.250Z,85.20
2019-02-26T22:47:15.876Z,77.33
2019-02-26T22:49:45.833Z,77.43
2019-02-26T22:52:15.705Z,97.87
2019-02-26T22:54:45.335Z,82.90
2019-02-26T22:57:15.008Z,80.80
2019-02-26T22:59:44.660Z,87.33
2019-02-26T23:02:14.495Z,91.80
2019-02-26T23:04:44.344Z,76.10
2019-02-26T23:07:14.153Z,70.33
2019-02-26T23:09:44.005Z,74.07
2019-02-26T23:12:14.441Z,81.47
2019-02-26T23:14:44.299Z,82.43
2019-02-26T23:17:14.268Z,78.90
2019-02-26T23:19:43.960Z,81.23
2019-02-26T23:22:13.992Z,81.10
2019-02-26T23:24:44.389Z,78.83
2019-02-26T23:27:15.186Z,90.80
2019-02-26T23:29:46.892Z,81.23
2019-02-26T23:32:17.229Z,77.57
2019-02-26T23:35:02.728Z,87.77
2019-02-26T23:37:34.527Z,86.00
2019-02-26T23:40:05.876Z,84.70
2019-02-26T23:42:38.951Z,83.87
2019-02-26T23:45:09.149Z,86.67
2019-02-26T23:47:40.134Z,79.27
2019-02-26T23:50:10.038Z,84.73
2019-02-26T23:52:40.084Z,84.77
2019-02-26T23:55:13.280Z,87.93
2019-02-26T23:57:42.216Z,91.67
